Lemhi County Airport
KSMN : now visible

Airfield :











YOU CAN JOIN US ON...

 
LOGIN :

Register | Disclaimer

   EN    FR    IT 

 









Legend :    VFR   Marginal VFR   IFR   Intensive IFR   Very Intensive IFR
Visi :
Ceiling :
>= 8 km
>= 3000ft
5 to 8 km
1000 to 3000 ft
1500m to 5 km
500 to 1000 ft
800 to 1500m
200 to 500 ft
< 800m
< 200 ft
Symbols :   Thunderstorms  Fog  Heavy snow  Heavy precipitations  Wind > 20 kt






- Airport Elevation : 4043 ft


KSMN - Lemhi County

CURRENT METAR :
  • 310756Z AUTO 17003KT 10SM FEW090 BKN110 21/08 A2977 RMK AO2 SLP039 T02110078

EXPIRED METARs :
  • 310656Z AUTO 17006KT 10SM FEW120 19/08 A2974 RMK AO2 SLP034 T01940083 403110100
  • 310556Z AUTO 12004KT 10SM CLR 21/07 A2974 RMK AO2 SLP034 T02110072 10311 20200 53005

TAF KSMN
Valid from the 31 at 06:00 until the 01 at 06:00 UTC


310526Z 3106/0106 19010KT P6SM BKN250
FM311800 25012KT P6SM BKN250
FM010100 27005KT P6SM SKC
KZLC FIR / North America



MET'MAP, your aeronautical weather chart ! - Copyright ORBIFLY December 2007 - Disclaimer

ORBIFLY MET'MAP TEAM :

Programming & Development : Alexandra Zaïnal
Concept & original design : Baudouin d'Aumeries
Assistance for programming : Marc-Olivier Méhu
Technical & hardware support : Manuel Goepfert

Contact : metmap@orbifly.com




SOURCES & CREDITS :

   NOAA       Earth
Advisory